createdAt,value
2016-11-24T00:00:19.099Z,8.3
2016-11-24T00:01:21.034Z,8.3
2016-11-24T00:02:22.466Z,8.3
2016-11-24T00:03:23.897Z,8.3
2016-11-24T00:04:25.830Z,8.3
2016-11-24T00:05:27.253Z,8.3
2016-11-24T00:06:28.710Z,8.3
2016-11-24T00:07:30.647Z,8.3
2016-11-24T00:08:32.084Z,8.3
2016-11-24T00:09:33.519Z,8.3
2016-11-24T00:11:36.846Z,8.3
2016-11-24T00:12:38.277Z,8.3
2016-11-24T00:13:40.207Z,8.3
2016-11-24T00:14:41.643Z,8.3
2016-11-24T00:15:43.075Z,8.3
2016-11-24T00:16:45.010Z,8.3
2016-11-24T00:17:46.290Z,8.3
2016-11-24T00:18:48.222Z,8.3
2016-11-24T00:19:49.664Z,8.3
2016-11-24T00:20:51.092Z,8.3
2016-11-24T00:21:53.023Z,8.3
2016-11-24T00:22:54.455Z,8.3
2016-11-24T00:23:56.388Z,8.3
2016-11-24T00:24:57.817Z,8.3
2016-11-24T00:25:59.247Z,8.4
2016-11-24T00:27:01.181Z,8.3
2016-11-24T00:28:02.614Z,8.4
2016-11-24T00:29:04.045Z,8.4
2016-11-24T00:30:05.982Z,8.4
2016-11-24T00:31:07.416Z,8.4
2016-11-24T00:32:08.853Z,8.4
2016-11-24T00:33:10.786Z,8.3
2016-11-24T00:34:12.216Z,8.3
2016-11-24T00:36:15.576Z,8.3
2016-11-24T00:37:17.015Z,8.4
2016-11-24T00:38:18.469Z,8.3
2016-11-24T00:39:20.404Z,8.4
2016-11-24T00:40:21.839Z,8.4
2016-11-24T00:41:23.266Z,8.3
2016-11-24T00:42:25.196Z,8.4
2016-11-24T00:43:26.624Z,8.3
2016-11-24T00:45:29.976Z,8.4
2016-11-24T00:46:31.405Z,8.4
2016-11-24T00:47:33.337Z,8.4
2016-11-24T00:48:34.769Z,8.4
2016-11-24T00:49:36.201Z,8.3
2016-11-24T00:50:38.136Z,8.4
2016-11-24T00:51:39.566Z,8.3
2016-11-24T00:52:40.997Z,8.3
2016-11-24T00:53:42.932Z,8.3
2016-11-24T00:54:44.370Z,8.3
2016-11-24T00:55:45.800Z,8.3
2016-11-24T00:56:47.756Z,8.3
2016-11-24T00:57:49.192Z,8.3
2016-11-24T00:58:50.634Z,8.3
2016-11-24T01:00:53.974Z,8.3
2016-11-24T01:01:55.410Z,8.3
2016-11-24T01:03:58.744Z,8.3
2016-11-24T01:05:00.680Z,8.3
2016-11-24T01:06:02.117Z,8.3
2016-11-24T01:07:03.557Z,8.3
2016-11-24T01:08:05.497Z,8.3
2016-11-24T01:09:06.935Z,8.3
2016-11-24T01:10:08.368Z,8.3
2016-11-24T01:11:10.310Z,8.3
2016-11-24T01:12:11.743Z,8.3
2016-11-24T01:13:13.176Z,8.3
2016-11-24T01:14:15.114Z,8.3
2016-11-24T01:15:16.550Z,8.3
2016-11-24T01:16:17.982Z,8.3
2016-11-24T01:17:19.918Z,8.3
2016-11-24T01:18:21.361Z,8.3
2016-11-24T01:19:22.798Z,8.2
2016-11-24T01:20:24.741Z,8.2
2016-11-24T01:21:26.176Z,8.2
2016-11-24T01:22:27.616Z,8.2
2016-11-24T01:23:29.554Z,8.2
2016-11-24T01:25:32.387Z,8.2
2016-11-24T01:26:34.326Z,8.2
2016-11-24T01:27:35.759Z,8.2
2016-11-24T01:28:37.192Z,8.2
2016-11-24T01:29:39.131Z,8.2
2016-11-24T01:30:40.706Z,8.2
2016-11-24T01:31:42.138Z,8.2
2016-11-24T01:32:43.571Z,8.2
2016-11-24T01:33:45.512Z,8.1
2016-11-24T01:34:46.945Z,8.2
2016-11-24T01:35:48.376Z,8.2
2016-11-24T01:36:50.312Z,8.2
2016-11-24T01:37:51.747Z,8.1
2016-11-24T01:38:53.182Z,8.1
2016-11-24T01:39:55.124Z,8.1
2016-11-24T01:41:58.461Z,8.1
2016-11-24T01:42:59.892Z,8.1
2016-11-24T01:44:01.330Z,8.1
2016-11-24T01:45:03.272Z,8.1
2016-11-24T01:46:04.718Z,8.1
2016-11-24T01:47:06.154Z,8.1
2016-11-24T01:48:07.594Z,8.1
2016-11-24T01:50:10.933Z,8.1
2016-11-24T01:51:12.871Z,8.1
2016-11-24T01:53:15.710Z,8.1
2016-11-24T01:54:17.647Z,8.1
2016-11-24T01:55:19.083Z,8.1
2016-11-24T01:56:20.528Z,8.1
2016-11-24T01:57:22.467Z,8.1
2016-11-24T01:58:23.901Z,8.1
2016-11-24T01:59:25.333Z,8
2016-11-24T02:00:27.273Z,8
2016-11-24T02:01:28.708Z,8
2016-11-24T02:02:30.182Z,8
2016-11-24T02:03:31.618Z,8
2016-11-24T02:04:33.558Z,8
2016-11-24T02:05:35.014Z,8
2016-11-24T02:06:36.448Z,8
2016-11-24T02:07:38.394Z,8
2016-11-24T02:08:39.828Z,8
2016-11-24T02:09:41.260Z,8
2016-11-24T02:10:43.196Z,8
2016-11-24T02:11:44.633Z,8
2016-11-24T02:12:46.069Z,8
2016-11-24T02:13:48.011Z,8
2016-11-24T02:14:49.442Z,8
2016-11-24T02:15:50.884Z,8
2016-11-24T02:16:52.819Z,8
2016-11-24T02:17:54.251Z,8
2016-11-24T02:18:55.683Z,8
2016-11-24T02:19:57.624Z,8
2016-11-24T02:22:00.461Z,8
2016-11-24T02:23:02.404Z,8
2016-11-24T02:24:03.844Z,8
2016-11-24T02:25:05.280Z,8
2016-11-24T02:26:07.220Z,8
2016-11-24T02:27:08.655Z,8
2016-11-24T02:28:10.221Z,8
2016-11-24T02:29:11.652Z,7.9
2016-11-24T02:30:13.596Z,7.9
2016-11-24T02:31:15.035Z,7.9
2016-11-24T02:32:16.468Z,7.9
2016-11-24T02:33:18.412Z,7.9
2016-11-24T02:34:19.846Z,7.9
2016-11-24T02:35:21.275Z,7.9
2016-11-24T02:36:23.215Z,7.9
2016-11-24T02:37:24.647Z,7.9
2016-11-24T02:38:26.079Z,7.9
2016-11-24T02:39:28.020Z,7.9
2016-11-24T02:40:29.522Z,7.9
2016-11-24T02:41:30.957Z,7.9
2016-11-24T02:42:32.389Z,7.9
2016-11-24T02:43:34.330Z,7.9
2016-11-24T02:44:35.792Z,7.9
2016-11-24T02:45:37.230Z,7.9
2016-11-24T02:46:39.171Z,7.8
2016-11-24T02:47:40.618Z,7.8
2016-11-24T02:48:42.054Z,7.8
2016-11-24T02:49:43.994Z,7.8
2016-11-24T02:50:45.425Z,7.8
2016-11-24T02:51:46.858Z,7.8
2016-11-24T02:53:50.203Z,7.8
2016-11-24T02:55:53.534Z,7.8
2016-11-24T02:56:54.970Z,7.8
2016-11-24T02:57:56.400Z,7.8
2016-11-24T02:58:58.335Z,7.8
2016-11-24T02:59:59.766Z,7.8
2016-11-24T03:01:01.202Z,7.8
2016-11-24T03:02:03.143Z,7.8
2016-11-24T03:03:04.579Z,7.8
2016-11-24T03:04:06.018Z,7.8
2016-11-24T03:05:07.959Z,7.8
2016-11-24T03:06:09.390Z,7.8
2016-11-24T03:07:10.820Z,7.8
2016-11-24T03:08:12.255Z,7.8
2016-11-24T03:09:14.193Z,7.8
2016-11-24T03:10:15.629Z,7.7
2016-11-24T03:11:17.066Z,7.7
2016-11-24T03:13:20.555Z,7.7
2016-11-24T03:14:21.989Z,7.7
2016-11-24T03:15:23.424Z,7.7
2016-11-24T03:16:25.366Z,7.7
2016-11-24T03:18:28.208Z,7.7
2016-11-24T03:19:30.142Z,7.7
2016-11-24T03:20:31.578Z,7.7
2016-11-24T03:21:33.025Z,7.8
2016-11-24T03:22:34.969Z,7.7
2016-11-24T03:23:36.445Z,7.8
2016-11-24T03:24:37.876Z,7.8
2016-11-24T03:25:39.816Z,7.7
2016-11-24T03:26:41.251Z,7.8
2016-11-24T03:27:42.689Z,7.7
2016-11-24T03:28:44.131Z,7.7
2016-11-24T03:29:46.069Z,7.7
2016-11-24T03:30:47.506Z,7.7
2016-11-24T03:31:48.938Z,7.7
2016-11-24T03:32:50.875Z,7.7
2016-11-24T03:33:52.333Z,7.7
2016-11-24T03:34:53.758Z,7.8
2016-11-24T03:35:55.693Z,7.8
2016-11-24T03:36:57.125Z,7.8
2016-11-24T03:37:58.556Z,7.8
2016-11-24T03:39:00.492Z,7.8
2016-11-24T03:41:03.328Z,7.8
2016-11-24T03:43:06.667Z,7.8
2016-11-24T03:44:08.098Z,7.8
2016-11-24T03:46:11.439Z,7.8
2016-11-24T03:47:12.868Z,7.8
2016-11-24T03:48:14.805Z,7.8
2016-11-24T03:49:16.232Z,7.8
2016-11-24T03:50:17.668Z,7.8
2016-11-24T03:51:19.605Z,7.7
2016-11-24T03:52:21.045Z,7.7
2016-11-24T03:53:22.477Z,7.7
2016-11-24T03:54:24.408Z,7.7
2016-11-24T03:55:25.842Z,7.7
2016-11-24T03:56:27.280Z,7.7
2016-11-24T03:57:28.740Z,7.7
2016-11-24T03:58:30.679Z,7.6
2016-11-24T03:59:32.117Z,7.6
2016-11-24T04:00:33.550Z,7.6
2016-11-24T04:01:35.491Z,7.6
2016-11-24T04:02:36.931Z,7.6
2016-11-24T04:03:38.365Z,7.6
2016-11-24T04:04:40.302Z,7.6
2016-11-24T04:05:41.741Z,7.6
2016-11-24T04:06:43.174Z,7.6
2016-11-24T04:07:45.108Z,7.6
2016-11-24T04:08:46.542Z,7.6
2016-11-24T04:09:47.978Z,7.6
2016-11-24T04:10:49.442Z,7.6
2016-11-24T04:11:51.375Z,7.6
2016-11-24T04:12:52.808Z,7.6
2016-11-24T04:13:54.236Z,7.6
2016-11-24T04:14:56.172Z,7.6
2016-11-24T04:16:59.012Z,7.6
2016-11-24T04:19:02.350Z,7.6
2016-11-24T04:20:03.782Z,7.6
2016-11-24T04:21:05.719Z,7.6
2016-11-24T04:22:07.153Z,7.6
2016-11-24T04:23:08.585Z,7.6
2016-11-24T04:25:11.958Z,7.6
2016-11-24T04:26:13.391Z,7.6
2016-11-24T04:27:14.958Z,7.6
2016-11-24T04:28:16.894Z,7.6
2016-11-24T04:29:18.327Z,7.6
2016-11-24T04:30:19.757Z,7.6
2016-11-24T04:31:21.189Z,7.6
2016-11-24T04:32:23.128Z,7.6
2016-11-24T04:33:24.558Z,7.6
2016-11-24T04:34:26.000Z,7.6
2016-11-24T04:35:27.939Z,7.6
2016-11-24T04:36:29.373Z,7.6
2016-11-24T04:37:30.809Z,7.6
2016-11-24T04:38:32.752Z,7.6
2016-11-24T04:39:34.186Z,7.6
2016-11-24T04:40:35.648Z,7.6
2016-11-24T04:41:37.088Z,7.6
2016-11-24T04:42:39.025Z,7.6
2016-11-24T04:43:40.459Z,7.6
2016-11-24T04:44:41.892Z,7.6
2016-11-24T04:46:45.229Z,7.6
2016-11-24T04:47:46.664Z,7.6
2016-11-24T04:48:48.603Z,7.6
2016-11-24T04:49:50.043Z,7.6
2016-11-24T04:50:51.476Z,7.6
2016-11-24T04:51:52.913Z,7.6
2016-11-24T04:52:54.849Z,7.6
2016-11-24T04:53:56.283Z,7.6
2016-11-24T04:54:57.860Z,7.6
2016-11-24T04:55:59.297Z,7.6
2016-11-24T04:57:01.413Z,7.6
2016-11-24T04:58:02.843Z,7.6
2016-11-24T04:59:04.271Z,7.6
2016-11-24T05:00:05.705Z,7.6
2016-11-24T05:01:07.649Z,7.6
2016-11-24T05:02:09.082Z,7.6
2016-11-24T05:03:10.510Z,7.6
2016-11-24T05:04:12.448Z,7.6
2016-11-24T05:05:14.025Z,7.6
2016-11-24T05:06:15.483Z,7.6
2016-11-24T05:09:20.226Z,7.6
2016-11-24T05:10:21.657Z,7.6
2016-11-24T05:11:23.094Z,7.6
2016-11-24T05:12:25.060Z,7.6
2016-11-24T05:13:26.482Z,7.7
2016-11-24T05:14:27.914Z,7.7
2016-11-24T05:15:29.847Z,7.7
2016-11-24T05:16:31.283Z,7.7
2016-11-24T05:17:32.722Z,7.7
2016-11-24T05:18:34.658Z,7.7
2016-11-24T05:19:36.091Z,7.7
2016-11-24T05:20:37.530Z,7.7
2016-11-24T05:21:39.466Z,7.7
2016-11-24T05:22:40.924Z,7.7
2016-11-24T05:23:42.361Z,7.7
2016-11-24T05:24:43.797Z,7.7
2016-11-24T05:25:45.737Z,7.7
2016-11-24T05:26:47.170Z,7.7
2016-11-24T05:27:48.604Z,7.7
2016-11-24T05:28:50.540Z,7.7
2016-11-24T05:29:51.979Z,7.7
2016-11-24T05:30:53.420Z,7.7
2016-11-24T05:31:55.353Z,7.7
2016-11-24T05:32:56.788Z,7.7
2016-11-24T05:33:58.224Z,7.7
2016-11-24T05:34:59.657Z,7.7
2016-11-24T05:36:01.729Z,7.7
2016-11-24T05:37:03.158Z,7.7
2016-11-24T05:38:04.590Z,7.7
2016-11-24T05:39:06.019Z,7.8
2016-11-24T05:40:07.957Z,7.8
2016-11-24T05:42:11.291Z,7.8
2016-11-24T05:44:14.118Z,7.8
2016-11-24T05:45:16.062Z,7.8
2016-11-24T05:46:17.499Z,7.8
2016-11-24T05:47:18.935Z,7.8
2016-11-24T05:48:20.361Z,7.8
2016-11-24T05:49:22.324Z,7.9
2016-11-24T05:50:23.758Z,7.9
2016-11-24T05:51:25.191Z,7.9
2016-11-24T05:52:27.121Z,7.9
2016-11-24T05:53:28.556Z,7.9
2016-11-24T05:54:29.990Z,7.9
2016-11-24T05:56:33.337Z,7.9
2016-11-24T05:57:34.771Z,7.8
2016-11-24T05:58:36.705Z,7.8
2016-11-24T05:59:38.140Z,7.8
2016-11-24T06:00:39.573Z,7.8
2016-11-24T06:01:41.509Z,7.8
2016-11-24T06:02:42.944Z,7.8
2016-11-24T06:03:44.375Z,7.8
2016-11-24T06:04:46.313Z,7.8
2016-11-24T06:05:47.747Z,7.8
2016-11-24T06:06:49.186Z,7.8
2016-11-24T06:07:51.117Z,7.8
2016-11-24T06:09:53.952Z,7.7
2016-11-24T06:10:55.885Z,7.7
2016-11-24T06:11:57.325Z,7.7
2016-11-24T06:12:58.791Z,7.7
2016-11-24T06:14:00.218Z,7.7
2016-11-24T06:15:02.154Z,7.7
2016-11-24T06:16:03.582Z,7.8
2016-11-24T06:17:05.018Z,7.8
2016-11-24T06:18:06.981Z,7.8
2016-11-24T06:19:08.419Z,7.8
2016-11-24T06:20:09.887Z,7.8
2016-11-24T06:21:11.823Z,7.8
2016-11-24T06:22:13.256Z,7.8
2016-11-24T06:23:14.683Z,7.8
2016-11-24T06:24:16.620Z,7.7
2016-11-24T06:25:18.056Z,7.7
2016-11-24T06:26:19.485Z,7.7
2016-11-24T06:27:20.914Z,7.7
2016-11-24T06:28:22.848Z,7.7
2016-11-24T06:29:24.284Z,7.7
2016-11-24T06:30:25.715Z,7.7
2016-11-24T06:31:27.650Z,7.7
2016-11-24T06:32:29.081Z,7.7
2016-11-24T06:33:30.509Z,7.7
2016-11-24T06:34:32.441Z,7.7
2016-11-24T06:35:33.902Z,7.7
2016-11-24T06:36:35.333Z,7.7
2016-11-24T06:37:37.274Z,7.7
2016-11-24T06:38:38.708Z,7.7
2016-11-24T06:40:41.790Z,7.7
2016-11-24T06:41:43.226Z,7.7
2016-11-24T06:42:45.164Z,7.6
2016-11-24T06:43:46.597Z,7.7
2016-11-24T06:45:49.931Z,7.7
2016-11-24T06:46:51.370Z,7.7
2016-11-24T06:47:52.804Z,7.7
2016-11-24T06:48:54.743Z,7.7
2016-11-24T06:49:56.174Z,7.7
2016-11-24T06:50:57.608Z,7.7
2016-11-24T06:51:59.539Z,7.7
2016-11-24T06:53:00.971Z,7.7
2016-11-24T06:54:02.402Z,7.7
2016-11-24T06:55:04.339Z,7.7
2016-11-24T06:56:05.777Z,7.7
2016-11-24T06:57:07.207Z,7.7
2016-11-24T06:58:09.138Z,7.7
2016-11-24T06:59:10.569Z,7.7
2016-11-24T07:00:12.003Z,7.7
2016-11-24T07:01:13.435Z,7.7
2016-11-24T07:02:15.379Z,7.7
2016-11-24T07:03:16.805Z,7.7
2016-11-24T07:04:18.235Z,7.7
2016-11-24T07:05:19.928Z,7.7
2016-11-24T07:06:21.859Z,7.7
2016-11-24T07:07:23.291Z,7.8
2016-11-24T07:08:24.724Z,7.8
2016-11-24T07:09:26.654Z,7.8
2016-11-24T07:10:28.089Z,7.8
2016-11-24T07:11:29.523Z,7.8
2016-11-24T07:12:30.991Z,7.8
2016-11-24T07:13:32.933Z,7.8
2016-11-24T07:14:34.363Z,7.8
2016-11-24T07:15:35.803Z,7.8
2016-11-24T07:16:37.745Z,7.8
2016-11-24T07:17:39.173Z,7.8
2016-11-24T07:18:40.616Z,7.8
2016-11-24T07:19:42.553Z,7.8
2016-11-24T07:21:45.386Z,7.8
2016-11-24T07:22:47.318Z,7.8
2016-11-24T07:23:48.745Z,7.8
2016-11-24T07:24:50.179Z,7.8
2016-11-24T07:25:52.117Z,7.8
2016-11-24T07:26:53.561Z,7.8
2016-11-24T07:28:56.899Z,7.8
2016-11-24T07:29:58.340Z,7.8
2016-11-24T07:30:59.781Z,7.8
2016-11-24T07:32:01.213Z,7.8
2016-11-24T07:33:03.151Z,7.8
2016-11-24T07:34:04.590Z,7.8
2016-11-24T07:35:06.024Z,7.8
2016-11-24T07:37:09.359Z,7.8
2016-11-24T07:38:10.802Z,7.8
2016-11-24T07:39:12.737Z,7.8
2016-11-24T07:40:14.166Z,7.8
2016-11-24T07:41:15.687Z,7.8
2016-11-24T07:42:17.626Z,7.8
2016-11-24T07:43:19.057Z,7.8
2016-11-24T07:44:20.484Z,7.8
2016-11-24T07:46:23.819Z,7.8
2016-11-24T07:47:25.247Z,7.8
2016-11-24T07:48:27.190Z,7.8
2016-11-24T07:49:28.624Z,7.8
2016-11-24T07:50:30.059Z,7.8
2016-11-24T07:51:32.031Z,7.8
2016-11-24T07:52:33.460Z,7.8
2016-11-24T07:53:34.928Z,7.8
2016-11-24T07:54:36.358Z,7.8
2016-11-24T07:55:38.291Z,7.9
2016-11-24T07:56:39.726Z,7.8
2016-11-24T07:57:41.160Z,7.9
2016-11-24T07:58:43.096Z,7.9
2016-11-24T07:59:44.530Z,7.9
2016-11-24T08:00:45.971Z,7.9
2016-11-24T08:01:47.907Z,7.9
2016-11-24T08:02:49.338Z,7.9
2016-11-24T08:03:50.771Z,7.9
2016-11-24T08:04:52.709Z,7.9
2016-11-24T08:05:54.142Z,7.9
2016-11-24T08:07:57.483Z,7.9
2016-11-24T08:08:58.916Z,7.9
2016-11-24T08:10:00.412Z,7.9
2016-11-24T08:11:01.982Z,7.9
2016-11-24T08:12:03.914Z,7.9
2016-11-24T08:13:05.346Z,7.8
2016-11-24T08:14:06.779Z,7.8
2016-11-24T08:15:08.712Z,7.8
2016-11-24T08:16:10.141Z,7.8
2016-11-24T08:17:11.568Z,7.8
2016-11-24T08:18:13.003Z,7.8
2016-11-24T08:19:14.943Z,7.8
2016-11-24T08:20:16.374Z,7.8
2016-11-24T08:21:17.806Z,7.9
2016-11-24T08:22:19.743Z,7.8
2016-11-24T08:23:21.177Z,7.9
2016-11-24T08:24:22.605Z,7.9
2016-11-24T08:25:24.600Z,7.9
2016-11-24T08:26:26.028Z,7.9
2016-11-24T08:27:27.455Z,7.9
2016-11-24T08:28:29.399Z,7.9
2016-11-24T08:29:30.833Z,7.9
2016-11-24T08:31:34.167Z,7.9
2016-11-24T08:32:35.610Z,7.9
2016-11-24T08:33:37.036Z,7.9
2016-11-24T08:34:38.970Z,7.9
2016-11-24T08:35:40.406Z,7.9
2016-11-24T08:36:41.842Z,7.9
2016-11-24T08:37:43.773Z,7.9
2016-11-24T08:39:46.609Z,7.9
2016-11-24T08:40:48.546Z,7.9
2016-11-24T08:41:49.976Z,7.9
2016-11-24T08:42:51.405Z,7.9
2016-11-24T08:43:53.341Z,7.9
2016-11-24T08:44:54.777Z,7.9
2016-11-24T08:46:58.112Z,7.9
2016-11-24T08:47:59.546Z,7.9
2016-11-24T08:49:00.978Z,7.9
2016-11-24T08:50:02.918Z,7.9
2016-11-24T08:51:04.357Z,7.9
2016-11-24T08:52:05.790Z,7.9
2016-11-24T08:53:07.725Z,7.9
2016-11-24T08:54:09.153Z,7.9
2016-11-24T08:55:10.591Z,7.9
2016-11-24T08:56:12.529Z,7.9
2016-11-24T08:57:13.964Z,7.9
2016-11-24T08:58:15.393Z,7.9
2016-11-24T08:59:17.324Z,7.9
2016-11-24T09:00:18.755Z,7.9
2016-11-24T09:01:20.185Z,7.9
2016-11-24T09:02:22.115Z,7.9
2016-11-24T09:03:23.547Z,7.9
2016-11-24T09:04:24.986Z,7.9
2016-11-24T09:05:26.926Z,7.9
2016-11-24T09:06:28.362Z,7.9
2016-11-24T09:07:29.799Z,7.9
2016-11-24T09:08:31.237Z,7.9
2016-11-24T09:09:33.172Z,7.9
2016-11-24T09:11:36.505Z,7.9
2016-11-24T09:12:37.938Z,7.9
2016-11-24T09:13:39.372Z,7.9
2016-11-24T09:14:41.311Z,7.9
2016-11-24T09:16:44.145Z,7.9
2016-11-24T09:18:47.488Z,7.9
2016-11-24T09:19:48.915Z,7.9
2016-11-24T09:20:50.849Z,7.9
2016-11-24T09:21:52.279Z,7.9
2016-11-24T09:22:53.708Z,7.9
2016-11-24T09:23:55.647Z,7.9
2016-11-24T09:24:57.076Z,7.9
2016-11-24T09:25:58.508Z,7.9
2016-11-24T09:27:00.460Z,7.9
2016-11-24T09:28:01.890Z,7.9
2016-11-24T09:29:03.327Z,7.9
2016-11-24T09:30:05.264Z,7.9
2016-11-24T09:31:06.693Z,7.9
2016-11-24T09:32:08.127Z,7.9
2016-11-24T09:33:10.068Z,7.9
2016-11-24T09:34:11.500Z,7.9
2016-11-24T09:35:12.932Z,7.9
2016-11-24T09:36:14.868Z,7.9
2016-11-24T09:37:16.317Z,7.9
2016-11-24T09:38:17.749Z,7.9
2016-11-24T09:39:19.178Z,7.9
2016-11-24T09:40:21.109Z,7.9
2016-11-24T09:41:22.541Z,7.9
2016-11-24T09:42:23.971Z,7.9
2016-11-24T09:43:25.909Z,7.9
2016-11-24T09:44:27.346Z,7.9
2016-11-24T09:45:28.913Z,7.9
2016-11-24T09:46:30.852Z,7.9
2016-11-24T09:47:32.280Z,7.9
2016-11-24T09:48:33.711Z,7.9
2016-11-24T09:50:37.046Z,8
2016-11-24T09:51:38.478Z,8
2016-11-24T09:52:40.422Z,8
2016-11-24T09:53:41.856Z,8
2016-11-24T09:55:45.190Z,8
2016-11-24T09:56:46.617Z,8
2016-11-24T09:57:48.057Z,8
2016-11-24T09:58:50.023Z,8
2016-11-24T09:59:51.453Z,8
2016-11-24T10:00:52.878Z,8
2016-11-24T10:01:54.814Z,8
2016-11-24T10:02:56.251Z,8
2016-11-24T10:03:57.685Z,8
2016-11-24T10:04:59.616Z,8
2016-11-24T10:06:01.047Z,8.1
2016-11-24T10:07:02.621Z,8.1
2016-11-24T10:08:04.048Z,8.1
2016-11-24T10:09:05.982Z,8.1
2016-11-24T10:11:08.816Z,8.1
2016-11-24T10:12:10.761Z,8.1
2016-11-24T10:13:12.189Z,8.1
2016-11-24T10:14:13.620Z,8.1
2016-11-24T10:15:15.554Z,8.1
2016-11-24T10:16:16.988Z,8.1
2016-11-24T10:17:18.425Z,8.1
2016-11-24T10:18:20.421Z,8.1
2016-11-24T10:19:21.860Z,8.1
2016-11-24T10:20:23.286Z,8.1
2016-11-24T10:21:25.214Z,8.1
2016-11-24T10:22:26.643Z,8.1
2016-11-24T10:23:28.076Z,8.1
2016-11-24T10:25:31.406Z,8.1
2016-11-24T10:26:32.837Z,8.1
2016-11-24T10:27:34.786Z,8
2016-11-24T10:28:36.358Z,8.1
2016-11-24T10:29:37.792Z,8.1
2016-11-24T10:30:39.292Z,8
2016-11-24T10:31:41.238Z,8
2016-11-24T10:32:42.810Z,8
2016-11-24T10:33:44.239Z,8
2016-11-24T10:34:45.670Z,8
2016-11-24T10:35:47.608Z,8
2016-11-24T10:36:49.101Z,8
2016-11-24T10:37:50.541Z,8
2016-11-24T10:38:52.107Z,8
2016-11-24T10:39:54.041Z,8
2016-11-24T10:40:55.470Z,8
2016-11-24T10:41:56.905Z,8
2016-11-24T10:42:58.837Z,8
2016-11-24T10:44:00.265Z,8
2016-11-24T10:45:01.702Z,8
2016-11-24T10:47:05.037Z,8
2016-11-24T10:48:06.467Z,8
2016-11-24T10:49:08.397Z,8
2016-11-24T10:50:09.833Z,8
2016-11-24T10:51:11.266Z,8
2016-11-24T10:52:13.225Z,8
2016-11-24T10:53:14.656Z,8
2016-11-24T10:54:16.087Z,8
2016-11-24T10:55:18.020Z,8
2016-11-24T10:56:19.448Z,8
2016-11-24T10:57:20.888Z,8
2016-11-24T10:58:22.825Z,8
2016-11-24T10:59:24.257Z,8
2016-11-24T11:00:25.695Z,8
2016-11-24T11:01:27.642Z,8
2016-11-24T11:02:29.080Z,8
2016-11-24T11:03:30.515Z,8
2016-11-24T11:04:32.453Z,7.9
2016-11-24T11:05:33.888Z,7.9
2016-11-24T11:07:37.225Z,7.9
2016-11-24T11:08:38.659Z,7.9
2016-11-24T11:09:40.089Z,7.9
2016-11-24T11:11:43.420Z,7.9
2016-11-24T11:12:44.846Z,7.9
2016-11-24T11:13:46.784Z,7.9
2016-11-24T11:14:48.223Z,7.9
2016-11-24T11:15:49.653Z,7.9
2016-11-24T11:17:52.996Z,7.9
2016-11-24T11:18:54.426Z,7.9
2016-11-24T11:19:56.362Z,7.9
2016-11-24T11:20:57.799Z,7.9
2016-11-24T11:21:59.224Z,7.9
2016-11-24T11:23:01.154Z,7.9
2016-11-24T11:24:02.590Z,7.9
2016-11-24T11:25:04.021Z,7.9
2016-11-24T11:26:05.954Z,7.9
2016-11-24T11:27:07.387Z,7.9
2016-11-24T11:28:08.826Z,7.9
2016-11-24T11:30:12.167Z,7.9
2016-11-24T11:31:13.598Z,7.9
2016-11-24T11:32:15.530Z,7.9
2016-11-24T11:33:16.966Z,7.9
2016-11-24T11:34:18.395Z,7.9
2016-11-24T11:35:20.332Z,7.9
2016-11-24T11:36:21.763Z,7.9
2016-11-24T11:37:23.194Z,7.9
2016-11-24T11:38:25.133Z,7.9
2016-11-24T11:39:26.564Z,7.9
2016-11-24T11:40:27.998Z,7.9
2016-11-24T11:41:29.933Z,7.9
2016-11-24T11:43:32.764Z,7.9
2016-11-24T11:44:34.702Z,7.9
2016-11-24T11:45:36.138Z,7.9
2016-11-24T11:46:37.573Z,7.9
2016-11-24T11:47:39.507Z,7.9
2016-11-24T11:48:40.935Z,7.9
2016-11-24T11:49:42.370Z,7.9
2016-11-24T11:50:44.307Z,8
2016-11-24T11:51:45.740Z,8
2016-11-24T11:52:47.173Z,8
2016-11-24T11:53:49.111Z,8
2016-11-24T11:54:50.545Z,8
2016-11-24T11:55:51.974Z,8
2016-11-24T11:56:53.905Z,8
2016-11-24T11:57:55.338Z,8
2016-11-24T11:58:56.774Z,8
2016-11-24T11:59:58.712Z,8
2016-11-24T12:01:00.147Z,8
2016-11-24T12:02:01.582Z,8
2016-11-24T12:03:03.520Z,8
2016-11-24T12:04:04.953Z,8
2016-11-24T12:05:06.388Z,8
2016-11-24T12:06:08.340Z,8
2016-11-24T12:08:11.174Z,8
2016-11-24T12:09:13.113Z,8
2016-11-24T12:10:14.546Z,8
2016-11-24T12:11:15.979Z,8
2016-11-24T12:12:17.921Z,8
2016-11-24T12:13:19.361Z,8
2016-11-24T12:14:20.928Z,8
2016-11-24T12:15:22.360Z,8
2016-11-24T12:16:24.294Z,8
2016-11-24T12:17:25.726Z,8
2016-11-24T12:18:27.176Z,8
2016-11-24T12:19:29.114Z,8.1
2016-11-24T12:20:30.543Z,8.1
2016-11-24T12:21:31.980Z,8.1
2016-11-24T12:22:33.914Z,8.1
2016-11-24T12:24:36.748Z,8.1
2016-11-24T12:25:38.688Z,8.1
2016-11-24T12:26:40.117Z,8.1
2016-11-24T12:27:41.547Z,8.1
2016-11-24T12:28:43.484Z,8.1
2016-11-24T12:29:44.921Z,8.1
2016-11-24T12:30:46.355Z,8.1
2016-11-24T12:31:48.290Z,8.1
2016-11-24T12:32:49.723Z,8.1
2016-11-24T12:33:51.157Z,8.1
2016-11-24T12:34:53.105Z,8.1
2016-11-24T12:35:54.537Z,8.1
2016-11-24T12:36:55.967Z,8.1
2016-11-24T12:37:57.901Z,8.1
2016-11-24T12:40:00.742Z,8.1
2016-11-24T12:41:02.680Z,8.1
2016-11-24T12:42:04.114Z,8.1
2016-11-24T12:43:05.574Z,8.1
2016-11-24T12:44:07.509Z,8.1
2016-11-24T12:45:08.940Z,8.1
2016-11-24T12:46:10.374Z,8.1
2016-11-24T12:47:12.375Z,8.1
2016-11-24T12:48:13.805Z,8.1
2016-11-24T12:49:15.235Z,8.1
2016-11-24T12:50:16.667Z,8.1
2016-11-24T12:51:18.603Z,8.1
2016-11-24T12:52:20.032Z,8.1
2016-11-24T12:53:21.465Z,8.1
2016-11-24T12:54:23.401Z,8.1
2016-11-24T12:55:24.901Z,8.1
2016-11-24T12:56:26.335Z,8.1
2016-11-24T12:57:28.276Z,8.1
2016-11-24T12:58:29.746Z,8.1
2016-11-24T12:59:31.185Z,8.1
2016-11-24T13:00:33.120Z,8.1
2016-11-24T13:01:34.555Z,8.1
2016-11-24T13:02:35.982Z,8.1
2016-11-24T13:04:39.320Z,8.1
2016-11-24T13:05:40.750Z,8.1
2016-11-24T13:06:42.684Z,8.1
2016-11-24T13:08:45.519Z,8.2
2016-11-24T13:09:47.449Z,8.2
2016-11-24T13:10:48.884Z,8.2
2016-11-24T13:11:50.317Z,8.2
2016-11-24T13:12:52.256Z,8.2
2016-11-24T13:13:53.692Z,8.2
2016-11-24T13:15:57.030Z,8.2
2016-11-24T13:16:58.461Z,8.2
2016-11-24T13:18:00.395Z,8.3
2016-11-24T13:19:01.830Z,8.3
2016-11-24T13:20:03.294Z,8.3
2016-11-24T13:21:05.235Z,8.3
2016-11-24T13:22:06.668Z,8.3
2016-11-24T13:23:08.098Z,8.3
2016-11-24T13:25:11.434Z,8.3
2016-11-24T13:26:12.871Z,8.3
2016-11-24T13:27:14.806Z,8.3
2016-11-24T13:28:16.244Z,8.3
2016-11-24T13:29:17.818Z,8.3
2016-11-24T13:30:19.253Z,8.3
2016-11-24T13:31:21.189Z,8.3
2016-11-24T13:32:22.617Z,8.4
2016-11-24T13:33:24.051Z,8.3
2016-11-24T13:34:25.990Z,8.3
2016-11-24T13:35:27.424Z,8.3
2016-11-24T13:36:28.853Z,8.3
2016-11-24T13:37:30.797Z,8.4
2016-11-24T13:38:32.230Z,8.3
2016-11-24T13:39:33.661Z,8.3
2016-11-24T13:40:35.601Z,8.3
2016-11-24T13:41:37.032Z,8.3
2016-11-24T13:42:38.968Z,8.4
2016-11-24T13:43:40.399Z,8.4
2016-11-24T13:45:43.744Z,8.4
2016-11-24T13:46:45.174Z,8.4
2016-11-24T13:47:46.604Z,8.4
2016-11-24T13:48:48.550Z,8.4
2016-11-24T13:49:49.978Z,8.4
2016-11-24T13:50:51.543Z,8.4
2016-11-24T13:51:52.978Z,8.4
2016-11-24T13:53:56.451Z,8.4
2016-11-24T13:54:57.881Z,8.4
2016-11-24T13:55:59.818Z,8.4
2016-11-24T13:57:01.251Z,8.4
2016-11-24T13:58:02.689Z,8.4
2016-11-24T13:59:04.625Z,8.4
2016-11-24T14:00:06.064Z,8.4
2016-11-24T14:01:07.493Z,8.4
2016-11-24T14:02:09.493Z,8.4
2016-11-24T14:03:10.924Z,8.4
2016-11-24T14:04:12.353Z,8.3
2016-11-24T14:05:14.288Z,8.3
2016-11-24T14:06:15.721Z,8.3
2016-11-24T14:07:17.159Z,8.3
2016-11-24T14:08:19.095Z,8.3
2016-11-24T14:09:20.532Z,8.3
2016-11-24T14:10:21.964Z,8.3
2016-11-24T14:11:23.898Z,8.3
2016-11-24T14:12:25.329Z,8.3
2016-11-24T14:13:26.786Z,8.3
2016-11-24T14:14:28.727Z,8.3
2016-11-24T14:15:30.165Z,8.3
2016-11-24T14:16:31.596Z,8.3
2016-11-24T14:17:33.536Z,8.3
2016-11-24T14:18:34.970Z,8.3
2016-11-24T14:19:36.402Z,8.3
2016-11-24T14:20:38.347Z,8.3
2016-11-24T14:21:39.779Z,8.3
2016-11-24T14:22:41.215Z,8.3
2016-11-24T14:23:43.149Z,8.3
2016-11-24T14:25:45.978Z,8.3
2016-11-24T14:26:47.910Z,8.3
2016-11-24T14:27:49.479Z,8.3
2016-11-24T14:28:50.914Z,8.2
2016-11-24T14:29:52.846Z,8.2
2016-11-24T14:31:55.682Z,8.2
2016-11-24T14:35:00.919Z,8.2
2016-11-24T14:37:03.754Z,8.2
2016-11-24T14:38:05.689Z,8.2
2016-11-24T14:39:07.123Z,8.2
2016-11-24T14:40:08.578Z,8.2
2016-11-24T14:41:10.517Z,8.2
2016-11-24T14:42:11.952Z,8.2
2016-11-24T14:43:13.386Z,8.2
2016-11-24T14:44:15.354Z,8.2
2016-11-24T14:45:16.787Z,8.2
2016-11-24T14:46:18.222Z,8.2
2016-11-24T14:47:20.159Z,8.2
2016-11-24T14:48:21.591Z,8.2
2016-11-24T14:49:23.024Z,8.1
2016-11-24T14:50:24.957Z,8.1
2016-11-24T14:51:26.387Z,8.1
2016-11-24T14:52:27.821Z,8.1
2016-11-24T14:54:31.157Z,8.1
2016-11-24T14:55:32.592Z,8.1
2016-11-24T14:57:35.924Z,8.1
2016-11-24T14:58:37.361Z,8.1
2016-11-24T14:59:39.297Z,8.1
2016-11-24T15:00:40.731Z,8.1
2016-11-24T15:01:42.161Z,8.1
2016-11-24T15:02:44.097Z,8.1
2016-11-24T15:03:45.533Z,8
2016-11-24T15:04:47.103Z,8
2016-11-24T15:05:48.536Z,8
2016-11-24T15:06:50.476Z,8
2016-11-24T15:07:51.921Z,8
2016-11-24T15:08:53.349Z,8
2016-11-24T15:10:56.687Z,8
2016-11-24T15:11:58.127Z,8
2016-11-24T15:13:00.061Z,8
2016-11-24T15:14:01.496Z,8
2016-11-24T15:15:02.929Z,8
2016-11-24T15:16:04.868Z,8
2016-11-24T15:17:06.301Z,8
2016-11-24T15:18:07.731Z,8
2016-11-24T15:19:09.664Z,8
2016-11-24T15:20:11.099Z,8
2016-11-24T15:21:12.532Z,8
2016-11-24T15:22:14.462Z,8
2016-11-24T15:23:15.893Z,8
2016-11-24T15:24:17.325Z,8
2016-11-24T15:25:19.277Z,8